sensor_id;sensor_type;location;lat;lon;timestamp;pressure;altitude;pressure_sealevel;temperature;humidity
56176;BME280;63065;51.082;17.016;2022-12-18T00:01:14;101942.72;;;-3.42;49.46
56176;BME280;63065;51.082;17.016;2022-12-18T00:03:31;101947.28;;;-3.11;49.33
56176;BME280;63065;51.082;17.016;2022-12-18T00:05:57;101948.67;;;-2.69;48.35
56176;BME280;63065;51.082;17.016;2022-12-18T00:08:21;101948.12;;;-2.85;48.39
56176;BME280;63065;51.082;17.016;2022-12-18T00:10:47;101947.43;;;-4.41;49.73
56176;BME280;63065;51.082;17.016;2022-12-18T00:13:13;101947.11;;;-3.12;49.04
56176;BME280;63065;51.082;17.016;2022-12-18T00:15:38;101950.51;;;-3.37;48.46
56176;BME280;63065;51.082;17.016;2022-12-18T00:18:03;101950.04;;;-4.32;50.06
56176;BME280;63065;51.082;17.016;2022-12-18T00:20:29;101948.18;;;-2.35;48.05
56176;BME280;63065;51.082;17.016;2022-12-18T00:22:55;101953.06;;;-2.05;47.14
56176;BME280;63065;51.082;17.016;2022-12-18T00:25:20;101951.46;;;-3.26;47.49
56176;BME280;63065;51.082;17.016;2022-12-18T00:27:45;101954.95;;;-1.98;46.40
56176;BME280;63065;51.082;17.016;2022-12-18T00:30:11;101955.91;;;-2.58;46.99
56176;BME280;63065;51.082;17.016;2022-12-18T00:32:36;101965.31;;;-2.73;47.52
56176;BME280;63065;51.082;17.016;2022-12-18T00:35:02;101970.06;;;-3.28;49.01
56176;BME280;63065;51.082;17.016;2022-12-18T00:37:27;101973.72;;;-4.06;49.23
56176;BME280;63065;51.082;17.016;2022-12-18T00:39:53;101972.59;;;-2.50;48.30
56176;BME280;63065;51.082;17.016;2022-12-18T00:42:18;101977.49;;;-2.22;47.84
56176;BME280;63065;51.082;17.016;2022-12-18T00:44:43;101979.31;;;-2.35;47.47
56176;BME280;63065;51.082;17.016;2022-12-18T00:47:08;101980.64;;;-2.98;47.64
56176;BME280;63065;51.082;17.016;2022-12-18T00:49:34;101982.22;;;-2.94;47.64
56176;BME280;63065;51.082;17.016;2022-12-18T00:52:00;101985.95;;;-2.59;47.85
56176;BME280;63065;51.082;17.016;2022-12-18T00:54:25;101993.18;;;-2.70;47.39
56176;BME280;63065;51.082;17.016;2022-12-18T00:56:51;101999.25;;;-2.87;47.69
56176;BME280;63065;51.082;17.016;2022-12-18T00:59:17;102000.35;;;-1.70;47.15
56176;BME280;63065;51.082;17.016;2022-12-18T01:01:41;102001.82;;;-2.76;47.79
56176;BME280;63065;51.082;17.016;2022-12-18T01:04:07;102010.75;;;-2.44;46.92
56176;BME280;63065;51.082;17.016;2022-12-18T01:06:34;102015.26;;;-2.76;48.62
56176;BME280;63065;51.082;17.016;2022-12-18T01:08:58;102019.53;;;-3.17;48.55
56176;BME280;63065;51.082;17.016;2022-12-18T01:11:23;102018.62;;;-2.36;46.88
56176;BME280;63065;51.082;17.016;2022-12-18T01:13:48;102026.58;;;-2.23;46.52
56176;BME280;63065;51.082;17.016;2022-12-18T01:16:15;102033.09;;;-2.04;46.70
56176;BME280;63065;51.082;17.016;2022-12-18T01:18:39;102034.92;;;-1.72;45.19
56176;BME280;63065;51.082;17.016;2022-12-18T01:21:07;102043.49;;;-3.28;47.92
56176;BME280;63065;51.082;17.016;2022-12-18T01:23:29;102042.81;;;-2.60;48.44
56176;BME280;63065;51.082;17.016;2022-12-18T01:25:55;102039.59;;;-2.53;47.66
56176;BME280;63065;51.082;17.016;2022-12-18T01:28:20;102041.30;;;-4.61;50.10
56176;BME280;63065;51.082;17.016;2022-12-18T01:30:45;102039.15;;;-2.20;47.86
56176;BME280;63065;51.082;17.016;2022-12-18T01:33:11;102044.80;;;-1.71;46.08
56176;BME280;63065;51.082;17.016;2022-12-18T01:35:40;102047.40;;;-2.07;46.47
56176;BME280;63065;51.082;17.016;2022-12-18T01:38:01;102048.41;;;-1.92;46.70
56176;BME280;63065;51.082;17.016;2022-12-18T01:40:27;102047.36;;;-1.60;46.02
56176;BME280;63065;51.082;17.016;2022-12-18T01:42:53;102046.06;;;-1.99;46.55
56176;BME280;63065;51.082;17.016;2022-12-18T01:45:23;102044.63;;;-2.14;46.02
56176;BME280;63065;51.082;17.016;2022-12-18T01:47:46;102044.31;;;-1.44;46.02
56176;BME280;63065;51.082;17.016;2022-12-18T01:50:11;102045.87;;;-1.63;45.41
56176;BME280;63065;51.082;17.016;2022-12-18T01:52:35;102048.25;;;-0.96;44.39
56176;BME280;63065;51.082;17.016;2022-12-18T01:55:00;102050.57;;;-0.79;44.33
56176;BME280;63065;51.082;17.016;2022-12-18T01:57:26;102052.78;;;-0.82;43.67
56176;BME280;63065;51.082;17.016;2022-12-18T01:59:52;102054.92;;;-0.82;44.00
56176;BME280;63065;51.082;17.016;2022-12-18T02:02:16;102057.69;;;-1.12;44.31
56176;BME280;63065;51.082;17.016;2022-12-18T02:04:42;102058.79;;;-1.46;44.05
56176;BME280;63065;51.082;17.016;2022-12-18T02:07:14;102052.53;;;-1.77;45.17
56176;BME280;63065;51.082;17.016;2022-12-18T02:09:38;102054.49;;;-1.17;44.56
56176;BME280;63065;51.082;17.016;2022-12-18T02:12:04;102059.56;;;-1.42;45.12
56176;BME280;63065;51.082;17.016;2022-12-18T02:14:28;102062.52;;;-0.91;44.30
56176;BME280;63065;51.082;17.016;2022-12-18T02:16:53;102064.10;;;-0.73;44.36
56176;BME280;63065;51.082;17.016;2022-12-18T02:21:46;102065.00;;;-0.55;44.27
56176;BME280;63065;51.082;17.016;2022-12-18T02:24:18;102066.65;;;-0.76;43.91
56176;BME280;63065;51.082;17.016;2022-12-18T02:26:35;102072.30;;;-1.96;44.57
56176;BME280;63065;51.082;17.016;2022-12-18T02:29:02;102076.61;;;-1.85;46.08
56176;BME280;63065;51.082;17.016;2022-12-18T02:31:27;102075.22;;;-1.08;45.18
56176;BME280;63065;51.082;17.016;2022-12-18T02:33:49;102078.90;;;-1.08;44.42
56176;BME280;63065;51.082;17.016;2022-12-18T02:36:15;102081.31;;;-1.14;44.38
56176;BME280;63065;51.082;17.016;2022-12-18T02:38:39;102087.26;;;-1.64;44.60
56176;BME280;63065;51.082;17.016;2022-12-18T02:41:05;102087.00;;;-1.68;44.26
56176;BME280;63065;51.082;17.016;2022-12-18T02:43:30;102087.63;;;-1.10;44.27
56176;BME280;63065;51.082;17.016;2022-12-18T02:45:57;102095.44;;;-1.04;43.81
56176;BME280;63065;51.082;17.016;2022-12-18T02:48:23;102097.23;;;-1.19;43.66
56176;BME280;63065;51.082;17.016;2022-12-18T02:50:52;102094.95;;;-0.88;43.54
56176;BME280;63065;51.082;17.016;2022-12-18T02:53:17;102089.64;;;-2.62;46.07
56176;BME280;63065;51.082;17.016;2022-12-18T02:55:45;102088.08;;;-1.14;45.74
56176;BME280;63065;51.082;17.016;2022-12-18T02:58:05;102089.68;;;-1.35;44.64
56176;BME280;63065;51.082;17.016;2022-12-18T03:00:33;102089.91;;;-1.03;43.78
56176;BME280;63065;51.082;17.016;2022-12-18T03:02:56;102093.19;;;-0.85;44.05
56176;BME280;63065;51.082;17.016;2022-12-18T03:05:22;102089.64;;;-0.89;44.11
56176;BME280;63065;51.082;17.016;2022-12-18T03:07:49;102091.81;;;-1.14;44.66
56176;BME280;63065;51.082;17.016;2022-12-18T03:10:14;102098.49;;;-1.19;44.27
56176;BME280;63065;51.082;17.016;2022-12-18T03:12:40;102095.77;;;-1.55;45.23
56176;BME280;63065;51.082;17.016;2022-12-18T03:15:04;102093.83;;;-1.17;44.86
56176;BME280;63065;51.082;17.016;2022-12-18T03:17:28;102097.74;;;-0.81;44.46
56176;BME280;63065;51.082;17.016;2022-12-18T03:19:54;102094.17;;;-2.14;45.04
56176;BME280;63065;51.082;17.016;2022-12-18T03:22:18;102099.72;;;-1.08;43.63
56176;BME280;63065;51.082;17.016;2022-12-18T03:24:43;102105.04;;;-1.62;44.25
56176;BME280;63065;51.082;17.016;2022-12-18T03:27:13;102105.66;;;-1.33;44.21
56176;BME280;63065;51.082;17.016;2022-12-18T03:29:37;102105.72;;;-0.71;43.87
56176;BME280;63065;51.082;17.016;2022-12-18T03:32:05;102099.42;;;-0.83;43.79
56176;BME280;63065;51.082;17.016;2022-12-18T03:34:30;102099.97;;;-0.70;43.66
56176;BME280;63065;51.082;17.016;2022-12-18T03:36:50;102106.67;;;-0.40;42.90
56176;BME280;63065;51.082;17.016;2022-12-18T03:39:16;102107.62;;;-0.63;43.01
56176;BME280;63065;51.082;17.016;2022-12-18T03:41:44;102108.27;;;-0.69;43.42
56176;BME280;63065;51.082;17.016;2022-12-18T03:44:12;102113.47;;;-0.36;43.56
56176;BME280;63065;51.082;17.016;2022-12-18T03:46:38;102114.35;;;-0.57;43.59
56176;BME280;63065;51.082;17.016;2022-12-18T03:49:03;102115.37;;;-0.50;43.62
56176;BME280;63065;51.082;17.016;2022-12-18T03:51:26;102118.01;;;-0.54;43.78
56176;BME280;63065;51.082;17.016;2022-12-18T03:53:53;102122.61;;;-1.18;43.08
56176;BME280;63065;51.082;17.016;2022-12-18T03:56:15;102123.20;;;-1.15;44.44
56176;BME280;63065;51.082;17.016;2022-12-18T03:58:40;102128.11;;;-0.80;42.97
56176;BME280;63065;51.082;17.016;2022-12-18T04:01:06;102128.98;;;-0.60;42.77
56176;BME280;63065;51.082;17.016;2022-12-18T04:03:30;102135.58;;;-0.81;43.38
56176;BME280;63065;51.082;17.016;2022-12-18T04:05:55;102141.54;;;-1.02;43.62
56176;BME280;63065;51.082;17.016;2022-12-18T04:08:21;102144.56;;;-0.43;43.59
56176;BME280;63065;51.082;17.016;2022-12-18T04:10:45;102140.05;;;-1.89;43.84
56176;BME280;63065;51.082;17.016;2022-12-18T04:13:10;102139.01;;;-0.87;44.18
56176;BME280;63065;51.082;17.016;2022-12-18T04:15:37;102134.74;;;-0.98;43.88
56176;BME280;63065;51.082;17.016;2022-12-18T04:18:01;102138.05;;;-1.03;43.87
56176;BME280;63065;51.082;17.016;2022-12-18T04:20:26;102144.44;;;-0.81;43.80
56176;BME280;63065;51.082;17.016;2022-12-18T04:22:52;102148.02;;;-1.31;43.86
56176;BME280;63065;51.082;17.016;2022-12-18T04:25:17;102151.73;;;-0.38;44.12
56176;BME280;63065;51.082;17.016;2022-12-18T04:27:42;102155.63;;;-0.81;43.91
56176;BME280;63065;51.082;17.016;2022-12-18T04:30:09;102156.37;;;-0.69;43.81
56176;BME280;63065;51.082;17.016;2022-12-18T04:32:33;102158.08;;;-0.53;43.93
56176;BME280;63065;51.082;17.016;2022-12-18T04:34:59;102155.34;;;-0.76;43.70
56176;BME280;63065;51.082;17.016;2022-12-18T04:37:24;102155.08;;;-0.88;43.97
56176;BME280;63065;51.082;17.016;2022-12-18T04:39:49;102156.87;;;-0.38;43.18
56176;BME280;63065;51.082;17.016;2022-12-18T04:42:14;102160.71;;;-0.39;43.01
56176;BME280;63065;51.082;17.016;2022-12-18T04:44:40;102167.30;;;-0.76;43.70
56176;BME280;63065;51.082;17.016;2022-12-18T04:47:05;102175.20;;;-0.51;43.18
56176;BME280;63065;51.082;17.016;2022-12-18T04:49:31;102170.50;;;-0.71;42.81
56176;BME280;63065;51.082;17.016;2022-12-18T04:51:56;102171.42;;;-1.14;42.27
56176;BME280;63065;51.082;17.016;2022-12-18T04:54:22;102174.31;;;-0.96;43.24
56176;BME280;63065;51.082;17.016;2022-12-18T04:56:48;102182.53;;;-0.86;42.88
56176;BME280;63065;51.082;17.016;2022-12-18T04:59:13;102180.06;;;-0.25;43.46
56176;BME280;63065;51.082;17.016;2022-12-18T05:01:38;102185.96;;;-0.51;42.76
56176;BME280;63065;51.082;17.016;2022-12-18T05:04:04;102187.88;;;-0.68;42.44
56176;BME280;63065;51.082;17.016;2022-12-18T05:06:30;102193.15;;;-1.18;41.90
56176;BME280;63065;51.082;17.016;2022-12-18T05:08:55;102193.60;;;-0.97;42.50
56176;BME280;63065;51.082;17.016;2022-12-18T05:11:21;102194.20;;;-0.80;43.46
56176;BME280;63065;51.082;17.016;2022-12-18T05:13:46;102195.57;;;-1.42;43.14
56176;BME280;63065;51.082;17.016;2022-12-18T05:16:11;102198.15;;;-1.32;42.37
56176;BME280;63065;51.082;17.016;2022-12-18T05:18:37;102200.15;;;-0.59;42.01
56176;BME280;63065;51.082;17.016;2022-12-18T05:21:02;102202.52;;;-0.76;42.31
56176;BME280;63065;51.082;17.016;2022-12-18T05:23:27;102204.14;;;-0.84;42.60
56176;BME280;63065;51.082;17.016;2022-12-18T05:25:53;102202.99;;;-0.74;43.27
56176;BME280;63065;51.082;17.016;2022-12-18T05:28:18;102204.03;;;-0.81;43.12
56176;BME280;63065;51.082;17.016;2022-12-18T05:30:46;102201.62;;;-1.11;41.96
56176;BME280;63065;51.082;17.016;2022-12-18T05:33:08;102205.99;;;-1.08;42.76
56176;BME280;63065;51.082;17.016;2022-12-18T05:35:33;102212.12;;;-0.66;42.80
56176;BME280;63065;51.082;17.016;2022-12-18T05:37:58;102213.00;;;-0.89;43.06
56176;BME280;63065;51.082;17.016;2022-12-18T05:40:24;102212.38;;;-0.53;42.67
56176;BME280;63065;51.082;17.016;2022-12-18T05:42:50;102214.77;;;-0.88;42.49
56176;BME280;63065;51.082;17.016;2022-12-18T05:45:16;102223.43;;;-0.92;42.50
56176;BME280;63065;51.082;17.016;2022-12-18T05:47:41;102224.88;;;-0.76;42.34
56176;BME280;63065;51.082;17.016;2022-12-18T05:50:07;102225.74;;;-0.59;42.55
56176;BME280;63065;51.082;17.016;2022-12-18T05:52:31;102227.91;;;-0.74;42.89
56176;BME280;63065;51.082;17.016;2022-12-18T05:54:57;102230.53;;;-1.06;43.16
56176;BME280;63065;51.082;17.016;2022-12-18T05:57:22;102236.37;;;-0.51;42.51
56176;BME280;63065;51.082;17.016;2022-12-18T05:59:48;102238.14;;;-0.61;42.62
56176;BME280;63065;51.082;17.016;2022-12-18T06:02:14;102240.42;;;-0.88;42.62
56176;BME280;63065;51.082;17.016;2022-12-18T06:04:39;102241.07;;;-0.66;42.13
56176;BME280;63065;51.082;17.016;2022-12-18T06:07:05;102237.29;;;-0.93;42.86
56176;BME280;63065;51.082;17.016;2022-12-18T06:09:30;102238.70;;;-1.27;42.94
56176;BME280;63065;51.082;17.016;2022-12-18T06:11:55;102242.56;;;-1.19;42.22
56176;BME280;63065;51.082;17.016;2022-12-18T06:14:20;102242.73;;;-1.34;43.23
56176;BME280;63065;51.082;17.016;2022-12-18T06:16:46;102246.83;;;-1.36;42.82
56176;BME280;63065;51.082;17.016;2022-12-18T06:19:16;102252.73;;;-0.65;42.89
56176;BME280;63065;51.082;17.016;2022-12-18T06:21:37;102259.98;;;-0.98;42.99
56176;BME280;63065;51.082;17.016;2022-12-18T06:24:03;102260.57;;;-0.84;43.12
56176;BME280;63065;51.082;17.016;2022-12-18T06:26:28;102263.48;;;-0.68;42.69
56176;BME280;63065;51.082;17.016;2022-12-18T06:28:53;102265.09;;;-0.71;42.46
56176;BME280;63065;51.082;17.016;2022-12-18T06:31:19;102271.47;;;-1.60;43.23
56176;BME280;63065;51.082;17.016;2022-12-18T06:33:44;102270.57;;;-0.95;43.75
56176;BME280;63065;51.082;17.016;2022-12-18T06:36:13;102269.98;;;-1.06;43.66
56176;BME280;63065;51.082;17.016;2022-12-18T06:38:37;102279.34;;;-0.64;43.18
56176;BME280;63065;51.082;17.016;2022-12-18T06:41:05;102283.81;;;-1.44;43.00
56176;BME280;63065;51.082;17.016;2022-12-18T06:43:26;102287.27;;;-1.41;43.74
56176;BME280;63065;51.082;17.016;2022-12-18T06:45:58;102291.84;;;-0.73;43.41
56176;BME280;63065;51.082;17.016;2022-12-18T06:48:17;102294.20;;;-0.65;43.13
56176;BME280;63065;51.082;17.016;2022-12-18T06:50:42;102293.91;;;-0.71;42.12
56176;BME280;63065;51.082;17.016;2022-12-18T06:53:07;102292.05;;;-0.67;42.18
56176;BME280;63065;51.082;17.016;2022-12-18T06:55:33;102298.57;;;-0.98;43.20
56176;BME280;63065;51.082;17.016;2022-12-18T06:57:58;102298.55;;;-1.16;42.67
56176;BME280;63065;51.082;17.016;2022-12-18T07:00:23;102302.95;;;-1.25;43.27
56176;BME280;63065;51.082;17.016;2022-12-18T07:02:49;102302.44;;;-1.12;43.03
56176;BME280;63065;51.082;17.016;2022-12-18T07:05:14;102297.24;;;-0.82;43.05
56176;BME280;63065;51.082;17.016;2022-12-18T07:07:40;102301.51;;;-0.64;42.82
56176;BME280;63065;51.082;17.016;2022-12-18T07:10:06;102307.27;;;-0.76;42.35
56176;BME280;63065;51.082;17.016;2022-12-18T07:12:30;102309.94;;;-0.67;42.36
56176;BME280;63065;51.082;17.016;2022-12-18T07:14:55;102315.21;;;-0.58;42.44
56176;BME280;63065;51.082;17.016;2022-12-18T07:17:21;102319.73;;;-0.56;42.20
56176;BME280;63065;51.082;17.016;2022-12-18T07:19:46;102325.67;;;-0.85;42.38
56176;BME280;63065;51.082;17.016;2022-12-18T07:22:12;102326.85;;;-0.76;42.92
56176;BME280;63065;51.082;17.016;2022-12-18T07:24:37;102327.05;;;-0.94;41.78
56176;BME280;63065;51.082;17.016;2022-12-18T07:27:02;102325.67;;;-1.16;42.15
56176;BME280;63065;51.082;17.016;2022-12-18T07:29:28;102327.57;;;-0.48;42.09
56176;BME280;63065;51.082;17.016;2022-12-18T07:31:53;102335.13;;;-0.58;41.80
56176;BME280;63065;51.082;17.016;2022-12-18T07:34:19;102341.09;;;-0.82;42.07
56176;BME280;63065;51.082;17.016;2022-12-18T07:36:44;102346.83;;;-1.15;42.85
56176;BME280;63065;51.082;17.016;2022-12-18T07:39:10;102351.02;;;-1.29;42.56
56176;BME280;63065;51.082;17.016;2022-12-18T07:41:35;102354.17;;;-1.06;43.06
56176;BME280;63065;51.082;17.016;2022-12-18T07:44:01;102354.32;;;-0.89;42.05
56176;BME280;63065;51.082;17.016;2022-12-18T07:46:26;102354.62;;;-0.92;42.38
56176;BME280;63065;51.082;17.016;2022-12-18T07:48:52;102359.14;;;-0.99;42.50
56176;BME280;63065;51.082;17.016;2022-12-18T07:51:18;102358.09;;;-0.61;41.71
56176;BME280;63065;51.082;17.016;2022-12-18T07:53:43;102353.02;;;-0.63;42.21
56176;BME280;63065;51.082;17.016;2022-12-18T07:56:10;102348.01;;;-0.99;42.47
56176;BME280;63065;51.082;17.016;2022-12-18T07:58:35;102356.33;;;-0.99;42.26
56176;BME280;63065;51.082;17.016;2022-12-18T08:01:04;102360.22;;;-0.90;42.20
56176;BME280;63065;51.082;17.016;2022-12-18T08:03:25;102363.95;;;-0.57;42.48
56176;BME280;63065;51.082;17.016;2022-12-18T08:05:50;102367.43;;;-0.46;41.93
56176;BME280;63065;51.082;17.016;2022-12-18T08:08:16;102369.82;;;-1.19;42.15
56176;BME280;63065;51.082;17.016;2022-12-18T08:10:41;102368.83;;;-0.89;42.36
56176;BME280;63065;51.082;17.016;2022-12-18T08:13:06;102371.25;;;-0.78;42.39
56176;BME280;63065;51.082;17.016;2022-12-18T08:15:32;102372.35;;;-0.67;42.37
56176;BME280;63065;51.082;17.016;2022-12-18T08:17:57;102380.31;;;-0.64;42.30
56176;BME280;63065;51.082;17.016;2022-12-18T08:20:23;102383.01;;;-1.10;41.67
56176;BME280;63065;51.082;17.016;2022-12-18T08:22:48;102387.65;;;-0.49;41.84
56176;BME280;63065;51.082;17.016;2022-12-18T08:25:14;102391.69;;;-0.70;42.14
56176;BME280;63065;51.082;17.016;2022-12-18T08:27:39;102392.47;;;-0.50;42.10
56176;BME280;63065;51.082;17.016;2022-12-18T08:30:05;102389.96;;;-0.30;41.69
56176;BME280;63065;51.082;17.016;2022-12-18T08:32:30;102393.28;;;-0.53;42.16
56176;BME280;63065;51.082;17.016;2022-12-18T08:34:55;102398.10;;;-0.30;41.91
56176;BME280;63065;51.082;17.016;2022-12-18T08:37:20;102403.83;;;-1.05;41.72
56176;BME280;63065;51.082;17.016;2022-12-18T08:39:46;102407.24;;;-0.45;41.99
56176;BME280;63065;51.082;17.016;2022-12-18T08:42:11;102408.70;;;-0.19;41.80
56176;BME280;63065;51.082;17.016;2022-12-18T08:44:37;102406.82;;;-0.27;41.52
56176;BME280;63065;51.082;17.016;2022-12-18T08:47:03;102407.62;;;-0.46;40.98
56176;BME280;63065;51.082;17.016;2022-12-18T08:49:28;102406.51;;;-0.67;41.93
56176;BME280;63065;51.082;17.016;2022-12-18T08:51:54;102414.68;;;-0.77;42.30
56176;BME280;63065;51.082;17.016;2022-12-18T08:54:19;102417.23;;;-0.40;41.88
56176;BME280;63065;51.082;17.016;2022-12-18T08:56:44;102416.73;;;-0.46;41.60
56176;BME280;63065;51.082;17.016;2022-12-18T08:59:10;102417.86;;;-0.46;41.10
56176;BME280;63065;51.082;17.016;2022-12-18T09:01:36;102419.76;;;-0.06;41.01
56176;BME280;63065;51.082;17.016;2022-12-18T09:04:01;102419.29;;;0.01;40.87
56176;BME280;63065;51.082;17.016;2022-12-18T09:06:26;102414.55;;;0.19;40.02
56176;BME280;63065;51.082;17.016;2022-12-18T09:08:51;102409.94;;;0.15;40.48
56176;BME280;63065;51.082;17.016;2022-12-18T09:11:21;102403.66;;;0.15;40.41
56176;BME280;63065;51.082;17.016;2022-12-18T09:13:42;102392.10;;;-0.68;41.30
56176;BME280;63065;51.082;17.016;2022-12-18T09:16:07;102388.67;;;-0.84;41.31
56176;BME280;63065;51.082;17.016;2022-12-18T09:18:33;102385.24;;;-0.68;41.53
56176;BME280;63065;51.082;17.016;2022-12-18T09:20:58;102384.59;;;-0.12;40.34
56176;BME280;63065;51.082;17.016;2022-12-18T09:23:23;102381.38;;;0.22;40.70
56176;BME280;63065;51.082;17.016;2022-12-18T09:25:49;102382.65;;;-0.30;41.13
56176;BME280;63065;51.082;17.016;2022-12-18T09:28:17;102370.66;;;0.23;40.36
56176;BME280;63065;51.082;17.016;2022-12-18T09:30:43;102368.24;;;0.29;40.56
56176;BME280;63065;51.082;17.016;2022-12-18T09:33:07;102361.71;;;0.12;40.65
56176;BME280;63065;51.082;17.016;2022-12-18T09:35:32;102359.75;;;-0.27;41.30
56176;BME280;63065;51.082;17.016;2022-12-18T09:37:57;102357.70;;;-0.26;40.37
56176;BME280;63065;51.082;17.016;2022-12-18T09:40:25;102356.54;;;-0.34;40.48
56176;BME280;63065;51.082;17.016;2022-12-18T09:42:52;102354.40;;;-1.26;41.75
56176;BME280;63065;51.082;17.016;2022-12-18T09:45:15;102350.40;;;-0.96;41.93
56176;BME280;63065;51.082;17.016;2022-12-18T09:47:39;102350.36;;;-0.86;42.24
56176;BME280;63065;51.082;17.016;2022-12-18T09:52:34;102357.74;;;-0.50;41.73
56176;BME280;63065;51.082;17.016;2022-12-18T09:55:01;102356.73;;;-0.10;41.76
56176;BME280;63065;51.082;17.016;2022-12-18T09:57:23;102355.73;;;-0.14;40.97
56176;BME280;63065;51.082;17.016;2022-12-18T09:59:51;102355.72;;;-0.62;41.29
56176;BME280;63065;51.082;17.016;2022-12-18T10:02:17;102350.36;;;-0.67;41.66
56176;BME280;63065;51.082;17.016;2022-12-18T10:04:37;102354.22;;;-0.63;41.65
56176;BME280;63065;51.082;17.016;2022-12-18T10:07:08;102359.93;;;-0.48;41.59
56176;BME280;63065;51.082;17.016;2022-12-18T10:09:33;102365.22;;;-0.50;41.34
56176;BME280;63065;51.082;17.016;2022-12-18T10:12:00;102366.15;;;-0.47;41.60
56176;BME280;63065;51.082;17.016;2022-12-18T10:14:23;102362.67;;;-0.30;41.19
56176;BME280;63065;51.082;17.016;2022-12-18T10:16:53;102366.61;;;-0.29;41.10
56176;BME280;63065;51.082;17.016;2022-12-18T10:19:33;102374.35;;;-0.06;40.82
56176;BME280;63065;51.082;17.016;2022-12-18T10:21:41;102372.71;;;0.23;40.64
56176;BME280;63065;51.082;17.016;2022-12-18T10:24:10;102375.18;;;-0.08;40.62
56176;BME280;63065;51.082;17.016;2022-12-18T10:26:27;102377.82;;;0.39;40.15
56176;BME280;63065;51.082;17.016;2022-12-18T10:28:53;102381.43;;;0.12;40.52
56176;BME280;63065;51.082;17.016;2022-12-18T10:31:20;102380.57;;;-0.32;40.82
56176;BME280;63065;51.082;17.016;2022-12-18T10:33:43;102374.30;;;-0.25;40.70
56176;BME280;63065;51.082;17.016;2022-12-18T10:36:09;102367.15;;;-0.46;40.82
56176;BME280;63065;51.082;17.016;2022-12-18T10:38:34;102370.04;;;-0.84;41.66
56176;BME280;63065;51.082;17.016;2022-12-18T10:41:01;102368.45;;;-0.61;41.54
56176;BME280;63065;51.082;17.016;2022-12-18T10:43:26;102368.18;;;-0.20;40.95
56176;BME280;63065;51.082;17.016;2022-12-18T10:45:59;102363.52;;;0.01;41.19
56176;BME280;63065;51.082;17.016;2022-12-18T10:48:19;102361.14;;;0.03;40.48
56176;BME280;63065;51.082;17.016;2022-12-18T10:50:47;102362.00;;;0.24;40.41
56176;BME280;63065;51.082;17.016;2022-12-18T10:53:16;102361.09;;;0.37;40.08
56176;BME280;63065;51.082;17.016;2022-12-18T10:55:36;102361.59;;;-0.46;41.04
56176;BME280;63065;51.082;17.016;2022-12-18T11:00:28;102364.19;;;0.05;40.90
56176;BME280;63065;51.082;17.016;2022-12-18T11:02:49;102374.85;;;-1.13;41.96
56176;BME280;63065;51.082;17.016;2022-12-18T11:07:47;102373.02;;;-0.29;40.96
56176;BME280;63065;51.082;17.016;2022-12-18T11:10:16;102374.50;;;-0.13;40.98
56176;BME280;63065;51.082;17.016;2022-12-18T11:12:31;102378.54;;;0.28;40.28
56176;BME280;63065;51.082;17.016;2022-12-18T11:14:58;102383.22;;;0.20;40.53
56176;BME280;63065;51.082;17.016;2022-12-18T11:17:29;102389.16;;;-0.26;40.79
56176;BME280;63065;51.082;17.016;2022-12-18T11:19:55;102395.96;;;-0.56;40.95
56176;BME280;63065;51.082;17.016;2022-12-18T11:22:20;102398.67;;;-0.63;41.48
56176;BME280;63065;51.082;17.016;2022-12-18T11:24:39;102405.57;;;-0.50;41.61
56176;BME280;63065;51.082;17.016;2022-12-18T11:27:06;102405.87;;;-0.31;41.41
56176;BME280;63065;51.082;17.016;2022-12-18T11:29:35;102406.13;;;0.24;40.30
56176;BME280;63065;51.082;17.016;2022-12-18T11:34:26;102403.30;;;0.56;40.07
56176;BME280;63065;51.082;17.016;2022-12-18T11:36:47;102396.55;;;-0.08;40.76
56176;BME280;63065;51.082;17.016;2022-12-18T11:39:17;102396.33;;;0.05;40.99
56176;BME280;63065;51.082;17.016;2022-12-18T11:41:41;102389.35;;;-0.29;41.05
56176;BME280;63065;51.082;17.016;2022-12-18T11:44:03;102382.86;;;-0.31;41.06
56176;BME280;63065;51.082;17.016;2022-12-18T11:46:32;102377.53;;;-0.55;41.42
56176;BME280;63065;51.082;17.016;2022-12-18T11:48:58;102372.03;;;-0.13;40.97
56176;BME280;63065;51.082;17.016;2022-12-18T11:51:28;102369.80;;;-0.22;40.09
56176;BME280;63065;51.082;17.016;2022-12-18T11:53:43;102367.47;;;-0.08;40.57
56176;BME280;63065;51.082;17.016;2022-12-18T11:56:26;102362.29;;;0.03;40.36
56176;BME280;63065;51.082;17.016;2022-12-18T11:58:42;102364.14;;;-0.11;40.75
56176;BME280;63065;51.082;17.016;2022-12-18T12:01:05;102359.44;;;-0.28;40.82
56176;BME280;63065;51.082;17.016;2022-12-18T12:06:03;102362.27;;;0.37;40.20
56176;BME280;63065;51.082;17.016;2022-12-18T12:08:22;102363.39;;;0.16;40.05
56176;BME280;63065;51.082;17.016;2022-12-18T12:10:51;102362.46;;;0.34;40.84
56176;BME280;63065;51.082;17.016;2022-12-18T12:13:20;102359.46;;;-0.14;41.02
56176;BME280;63065;51.082;17.016;2022-12-18T12:15:39;102357.48;;;0.27;40.17
56176;BME280;63065;51.082;17.016;2022-12-18T12:18:06;102362.29;;;-0.49;41.21
56176;BME280;63065;51.082;17.016;2022-12-18T12:20:33;102358.95;;;-1.19;41.68
56176;BME280;63065;51.082;17.016;2022-12-18T12:22:57;102356.40;;;-0.92;42.01
56176;BME280;63065;51.082;17.016;2022-12-18T12:25:23;102350.40;;;-0.64;41.84
56176;BME280;63065;51.082;17.016;2022-12-18T12:27:49;102356.41;;;-0.50;41.38
56176;BME280;63065;51.082;17.016;2022-12-18T12:30:08;102360.33;;;-0.35;41.00
56176;BME280;63065;51.082;17.016;2022-12-18T12:32:47;102355.55;;;-0.49;41.61
56176;BME280;63065;51.082;17.016;2022-12-18T12:35:08;102354.11;;;-1.21;42.48
56176;BME280;63065;51.082;17.016;2022-12-18T12:37:34;102355.58;;;-0.75;41.80
56176;BME280;63065;51.082;17.016;2022-12-18T12:39:49;102353.92;;;-0.66;41.38
56176;BME280;63065;51.082;17.016;2022-12-18T12:42:18;102349.91;;;-0.23;41.52
56176;BME280;63065;51.082;17.016;2022-12-18T12:44:44;102348.71;;;-1.20;41.19